»·PEaware :: WAT169 KPSP-KDEN

WAT169 :: KPSP-KDEN

FLIGHT INFORMATION

Flight Status: Arrived
Operator:
Walker Air Transport
More flights by this operator :: More flights under this callsign
Pilot: Marty P. (27464)
Aircraft: BOEING 737-800
(B738)
More flights by this aircraft type
Origin: KPSP Palm Springs Intl
United States
Destination: KDEN Denver Intl
United States
More flights between these airports :: More routes between these airports
Route: CATH1 PSP V370 TNP EED J236 TBC SHNPS TBARR2
File this flight plan on PilotEdge
Remarks:
Altitude:
(Current/Filed)
39,000ft
Speed:
(Current/Filed)
480kts
Departed: 09-Jan-21 09:38 AM
Arrived: 09-Jan-21 11:15 AM
Distance/Time
Traveled:
673nm/1:37
Distance/Time
To Go:
Arrived

Flight Plot

Page will automatically refresh every two minutes.

Flight plan parsing failed; only flown route is shown


Map Options




Map Legend


Flown Route
Filed Route
Departure Airport
Arrival Airport
Navaid (VOR, NDB)
Fix

Horizontal Profiles

Position Reports

Time Latitude Longitude Heading Altitude Ground
Speed
09-Jan-21 09:17 33.822540 -116.506614 359 417ft 0kts
09-Jan-21 09:18 33.822540 -116.506614 359 417ft 0kts
09-Jan-21 09:19 33.822540 -116.506614 359 417ft 0kts
09-Jan-21 09:20 33.822540 -116.506614 359 417ft 0kts
09-Jan-21 09:21 33.822540 -116.506614 359 417ft 0kts
09-Jan-21 09:22 33.822540 -116.506614 359 417ft 0kts
09-Jan-21 09:23 33.822540 -116.506614 359 417ft 0kts
09-Jan-21 09:24 33.822540 -116.506614 359 417ft 0kts
09-Jan-21 09:25 33.822540 -116.506614 359 417ft 0kts
09-Jan-21 09:26 33.822540 -116.506614 359 417ft 0kts
09-Jan-21 09:27 33.822540 -116.506614 359 417ft 0kts
09-Jan-21 09:28 33.822447 -116.506610 347 417ft 2kts
09-Jan-21 09:29 33.822058 -116.506109 294 416ft 2kts
09-Jan-21 09:30 33.821637 -116.505675 356 414ft 0kts
09-Jan-21 09:31 33.822377 -116.505334 51 415ft 7kts
09-Jan-21 09:32 33.822883 -116.504523 53 414ft 0kts
09-Jan-21 09:33 33.822883 -116.504523 53 414ft 0kts
09-Jan-21 09:34 33.823036 -116.504078 87 414ft 10kts
09-Jan-21 09:35 33.818844 -116.500036 142 404ft 19kts
09-Jan-21 09:36 33.818527 -116.498958 93 401ft 5kts
09-Jan-21 09:37 33.830707 -116.508635 323 474ft 160kts
09-Jan-21 09:38 33.870036 -116.547355 320 2745ft 218kts
09-Jan-21 09:39 33.924282 -116.562461 49 5915ft 239kts
09-Jan-21 09:40 33.937043 -116.482547 61 8966ft 252kts
09-Jan-21 09:41 33.970777 -116.398441 56 10972ft 324kts
09-Jan-21 09:42 34.016530 -116.291715 57 13298ft 374kts
09-Jan-21 09:43 34.064598 -116.178385 56 16388ft 386kts
09-Jan-21 09:44 34.114289 -116.061233 55 18988ft 401kts
09-Jan-21 09:45 34.165859 -115.939569 54 21362ft 414kts
09-Jan-21 09:46 34.218764 -115.814722 53 23291ft 430kts
09-Jan-21 09:47 34.276817 -115.677879 54 24090ft 467kts
09-Jan-21 09:48 34.332998 -115.544455 52 27069ft 445kts
09-Jan-21 09:49 34.390197 -115.409381 52 28545ft 456kts
09-Jan-21 09:50 34.448533 -115.271359 52 29876ft 465kts
09-Jan-21 09:51 34.507854 -115.130857 52 31130ft 471kts
09-Jan-21 09:52 34.567125 -114.990183 52 32721ft 464kts
09-Jan-21 09:53 34.625222 -114.852286 52 34217ft 457kts
09-Jan-21 09:54 34.683279 -114.714597 52 35191ft 459kts
09-Jan-21 09:55 34.741601 -114.576101 51 36070ft 462kts
09-Jan-21 09:56 34.800417 -114.436318 51 36819ft 466kts
09-Jan-21 09:57 34.859572 -114.295624 51 37449ft 470kts
09-Jan-21 09:58 34.919430 -114.153162 51 37979ft 473kts
09-Jan-21 09:59 34.979572 -114.009877 51 38458ft 476kts
09-Jan-21 10:00 35.039848 -113.866159 51 38881ft 479kts
09-Jan-21 10:01 35.100199 -113.722161 51 39213ft 482kts
09-Jan-21 10:02 35.162655 -113.573127 52 39210ft 494kts
09-Jan-21 10:03 35.225439 -113.423053 52 39210ft 501kts
09-Jan-21 10:04 35.289216 -113.270523 52 39210ft 504kts
09-Jan-21 10:05 35.353098 -113.117660 52 39177ft 506kts
09-Jan-21 10:06 35.417210 -112.964081 53 39155ft 507kts
09-Jan-21 10:07 35.481312 -112.810397 53 39155ft 507kts
09-Jan-21 10:08 35.545383 -112.656627 53 39151ft 503kts
09-Jan-21 10:09 35.608685 -112.504631 53 39141ft 500kts
09-Jan-21 10:10 35.671865 -112.352836 53 39130ft 497kts
09-Jan-21 10:11 35.734734 -112.201703 53 39128ft 494kts
09-Jan-21 10:12 35.796990 -112.051898 53 39128ft 492kts
09-Jan-21 10:13 35.859219 -111.902026 53 39137ft 491kts
09-Jan-21 10:14 35.921391 -111.752186 53 39137ft 490kts
09-Jan-21 10:15 35.983431 -111.602545 53 39137ft 491kts
09-Jan-21 10:16 36.045666 -111.452314 54 39141ft 491kts
09-Jan-21 10:17 36.107407 -111.303147 55 39162ft 491kts
09-Jan-21 10:18 36.176872 -111.159864 50 39173ft 487kts
09-Jan-21 10:19 36.248733 -111.017555 51 39172ft 489kts
09-Jan-21 10:20 36.321004 -110.873943 51 39174ft 491kts
09-Jan-21 10:21 36.393206 -110.729861 52 39173ft 493kts
09-Jan-21 10:22 36.465600 -110.584777 52 39174ft 494kts
09-Jan-21 10:23 36.537874 -110.439308 52 39174ft 495kts
09-Jan-21 10:24 36.610170 -110.293178 53 39170ft 496kts
09-Jan-21 10:25 36.682298 -110.146774 53 39165ft 497kts
09-Jan-21 10:26 36.754249 -110.000064 53 39164ft 496kts
09-Jan-21 10:27 36.826396 -109.852332 54 39137ft 498kts
09-Jan-21 10:28 36.898210 -109.704582 54 39137ft 498kts
09-Jan-21 10:29 36.969798 -109.556660 54 39137ft 497kts
09-Jan-21 10:30 37.041285 -109.408290 54 39136ft 497kts
09-Jan-21 10:31 37.112403 -109.260052 55 39137ft 497kts
09-Jan-21 10:32 37.183711 -109.110753 55 39125ft 498kts
09-Jan-21 10:33 37.254452 -108.961951 55 39092ft 499kts
09-Jan-21 10:35 37.325472 -108.811877 56 39091ft 499kts
09-Jan-21 10:36 37.396038 -108.662078 56 39091ft 499kts
09-Jan-21 10:37 37.466634 -108.511536 56 39091ft 499kts
09-Jan-21 10:38 37.536874 -108.361062 56 39091ft 500kts
09-Jan-21 10:39 37.607085 -108.209990 57 39089ft 499kts
09-Jan-21 10:40 37.676929 -108.058990 57 39060ft 500kts
09-Jan-21 10:41 37.746708 -107.907417 57 39045ft 500kts
09-Jan-21 10:42 37.816531 -107.755027 57 39056ft 500kts
09-Jan-21 10:43 37.885793 -107.603153 58 39072ft 500kts
09-Jan-21 10:44 37.955040 -107.450594 57 39085ft 501kts
09-Jan-21 10:45 38.024057 -107.297839 58 39133ft 501kts
09-Jan-21 10:46 38.093051 -107.144429 59 39182ft 500kts
09-Jan-21 10:47 38.158785 -106.989427 51 39181ft 498kts
09-Jan-21 10:48 38.248447 -106.855082 48 39183ft 499kts
09-Jan-21 10:48 38.322611 -106.743577 48 39125ft 501kts
09-Jan-21 10:49 38.412088 -106.607556 48 39154ft 502kts
09-Jan-21 10:50 38.500978 -106.471522 48 39155ft 503kts
09-Jan-21 10:52 38.603325 -106.314077 50 36982ft 489kts
09-Jan-21 10:52 38.674450 -106.204249 50 34738ft 479kts
09-Jan-21 10:53 38.758785 -106.074471 51 32063ft 484kts
09-Jan-21 10:54 38.845730 -105.940943 51 29375ft 502kts
09-Jan-21 10:55 38.934169 -105.804124 51 26676ft 499kts
09-Jan-21 10:56 39.021713 -105.667864 50 23961ft 487kts
09-Jan-21 10:57 39.105365 -105.537459 50 21427ft 461kts
09-Jan-21 10:58 39.184245 -105.413247 50 18925ft 436kts
09-Jan-21 10:59 39.256738 -105.297156 54 16595ft 374kts
09-Jan-21 11:00 39.291997 -105.188906 80 15942ft 315kts
09-Jan-21 11:01 39.305591 -105.077822 82 14811ft 300kts
09-Jan-21 11:02 39.318344 -104.980040 77 14549ft 262kts
09-Jan-21 11:03 39.335615 -104.890173 77 13990ft 256kts
09-Jan-21 11:04 39.358053 -104.801497 72 12956ft 248kts
09-Jan-21 11:05 39.383800 -104.716719 64 11957ft 245kts
09-Jan-21 11:06 39.438644 -104.665651 9 11971ft 256kts
09-Jan-21 11:07 39.510165 -104.662934 358 11862ft 260kts
09-Jan-21 11:08 39.581543 -104.663524 0 10412ft 251kts
09-Jan-21 11:09 39.649915 -104.662750 1 9011ft 240kts
09-Jan-21 11:10 39.714363 -104.661946 0 7710ft 220kts
09-Jan-21 11:11 39.768222 -104.661313 0 6654ft 167kts
09-Jan-21 11:12 39.814828 -104.660722 0 5751ft 167kts
09-Jan-21 11:13 39.855141 -104.660233 0 5444ft 96kts
09-Jan-21 11:14 39.861057 -104.661591 267 5444ft 5kts
09-Jan-21 11:15 39.861110 -104.665524 277 5444ft 18kts
09-Jan-21 11:16 39.860615 -104.670180 268 5444ft 8kts
09-Jan-21 11:17 39.860655 -104.671523 292 5444ft 3kts
09-Jan-21 11:18 39.861453 -104.674519 308 5444ft 10kts
09-Jan-21 11:19 39.862336 -104.674774 3 5444ft 2kts
09-Jan-21 11:20 39.862565 -104.674762 2 5444ft 0kts

Navigation Log

Ident Type
Flight plan parsing failed, navigation log unavailable